createdAt,value
2023-04-09T00:08:43.791Z,114.47
2023-04-09T00:18:49.236Z,113.37
2023-04-09T00:28:53.543Z,114.10
2023-04-09T00:38:59.144Z,120.43
2023-04-09T00:49:02.967Z,121.13
2023-04-09T00:59:08.176Z,121.83
2023-04-09T01:09:20.636Z,121.73
2023-04-09T01:19:43.439Z,126.97
2023-04-09T01:29:52.517Z,117.77
2023-04-09T01:39:56.862Z,122.13
2023-04-09T01:50:03.113Z,120.93
2023-04-09T02:00:09.524Z,123.10
2023-04-09T02:10:24.348Z,121.73
2023-04-09T02:20:28.354Z,124.47
2023-04-09T02:30:33.422Z,129.43
2023-04-09T02:40:37.392Z,119.67
2023-04-09T02:50:42.636Z,123.30
2023-04-09T03:00:46.616Z,122.40
2023-04-09T03:10:52.035Z,117.63
2023-04-09T03:20:55.723Z,122.33
2023-04-09T03:31:04.465Z,119.67
2023-04-09T03:41:12.867Z,120.07
2023-04-09T03:51:18.995Z,120.07
2023-04-09T04:01:28.580Z,123.50
2023-04-09T04:11:37.385Z,127.77
2023-04-09T04:21:41.237Z,131.60
2023-04-09T04:31:46.846Z,128.17
2023-04-09T04:41:53.852Z,132.23
2023-04-09T04:52:03.715Z,138.50
2023-04-09T05:02:09.113Z,134.37
2023-04-09T05:12:25.375Z,135.47
2023-04-09T05:22:30.885Z,136.43
2023-04-09T05:32:36.773Z,134.10
2023-04-09T05:42:41.804Z,140.97
2023-04-09T05:52:56.504Z,135.33
2023-04-09T06:03:07.050Z,138.27
2023-04-09T06:13:13.397Z,136.43
2023-04-09T06:23:18.773Z,147.53
2023-04-09T06:33:24.122Z,128.40
2023-04-09T06:43:28.182Z,129.50
2023-04-09T06:53:33.506Z,126.87
2023-04-09T07:03:37.461Z,129.03
2023-04-09T07:13:42.849Z,131.83
2023-04-09T07:23:46.934Z,129.10
2023-04-09T07:33:52.694Z,126.73
2023-04-09T07:43:56.523Z,128.10
2023-04-09T07:54:01.820Z,127.47
2023-04-09T08:04:06.359Z,128.17
2023-04-09T08:14:13.018Z,120.37
2023-04-09T08:24:17.504Z,122.57
2023-04-09T08:34:23.159Z,130.47
2023-04-09T08:44:28.033Z,130.60
2023-04-09T08:54:33.236Z,130.47
2023-04-09T09:04:47.550Z,122.53
2023-04-09T09:14:52.749Z,130.00
2023-04-09T09:24:57.457Z,126.30
2023-04-09T09:35:04.659Z,127.00
2023-04-09T09:45:20.667Z,126.07
2023-04-09T09:55:29.290Z,125.17
2023-04-09T10:05:35.400Z,121.13
2023-04-09T10:15:43.252Z,113.17
2023-04-09T10:25:47.299Z,127.70
2023-04-09T10:35:54.026Z,125.13
2023-04-09T10:45:59.617Z,123.13
2023-04-09T10:56:17.494Z,124.20
2023-04-09T11:06:24.731Z,118.90
2023-04-09T11:16:31.561Z,113.77
2023-04-09T11:26:38.060Z,114.50
2023-04-09T11:36:43.213Z,109.63
2023-04-09T11:46:47.141Z,108.50
2023-04-09T11:56:56.195Z,108.50
2023-04-09T12:06:59.976Z,112.00
2023-04-09T12:17:04.962Z,111.53
2023-04-09T12:27:08.616Z,111.17
2023-04-09T12:37:13.641Z,113.37
2023-04-09T12:47:17.656Z,111.20
2023-04-09T12:57:22.748Z,113.20
2023-04-09T13:07:29.389Z,109.57
2023-04-09T13:17:34.404Z,112.37
2023-04-09T13:27:38.309Z,112.20
2023-04-09T13:37:44.277Z,106.70
2023-04-09T13:47:48.077Z,107.23
2023-04-09T13:57:53.163Z,111.73
2023-04-09T14:07:56.869Z,114.67
2023-04-09T14:18:01.898Z,113.17
2023-04-09T14:28:06.041Z,112.43
2023-04-09T14:38:11.397Z,110.87
2023-04-09T14:48:15.164Z,115.40
2023-04-09T14:58:20.122Z,118.80
2023-04-09T15:08:23.743Z,114.40
2023-04-09T15:18:28.856Z,107.30
2023-04-09T15:28:32.455Z,111.40
2023-04-09T15:38:37.620Z,110.57
2023-04-09T15:48:41.774Z,110.53
2023-04-09T15:58:47.197Z,112.83
2023-04-09T16:08:51.321Z,112.10
2023-04-09T16:18:57.221Z,119.43
2023-04-09T16:29:04.270Z,115.30
2023-04-09T16:39:09.269Z,107.83
2023-04-09T16:49:12.804Z,114.20
2023-04-09T16:59:21.061Z,110.50
2023-04-09T17:09:25.196Z,106.73
2023-04-09T17:19:30.255Z,106.23
2023-04-09T17:29:34.269Z,103.50
2023-04-09T17:39:39.434Z,106.13
2023-04-09T17:49:43.085Z,103.03
2023-04-09T17:59:49.078Z,107.93
2023-04-09T18:09:52.720Z,106.57
2023-04-09T18:19:58.757Z,114.80
2023-04-09T18:30:02.510Z,108.93
2023-04-09T18:40:12.340Z,102.23
2023-04-09T18:50:17.868Z,100.80
2023-04-09T19:00:23.116Z,102.47
2023-04-09T19:10:27.290Z,99.33
2023-04-09T19:20:35.001Z,106.73
2023-04-09T19:30:38.630Z,110.17
2023-04-09T19:40:43.703Z,105.87
2023-04-09T19:50:48.544Z,113.57
2023-04-09T20:00:53.724Z,105.43
2023-04-09T20:10:57.584Z,108.27
2023-04-09T20:21:02.568Z,108.03
2023-04-09T20:31:07.791Z,108.67
2023-04-09T20:41:13.145Z,107.60
2023-04-09T20:51:16.949Z,109.50
2023-04-09T21:01:23.804Z,115.57
2023-04-09T21:11:27.454Z,107.50
2023-04-09T21:21:32.471Z,109.73
2023-04-09T21:31:36.704Z,106.10
2023-04-09T21:41:41.847Z,114.10
2023-04-09T21:51:47.741Z,102.37
2023-04-09T22:01:53.310Z,110.10
2023-04-09T22:11:57.559Z,116.87
2023-04-09T22:22:02.621Z,121.43
2023-04-09T22:32:06.400Z,114.37
2023-04-09T22:42:12.162Z,122.97
2023-04-09T22:52:15.776Z,123.67
2023-04-09T23:02:20.841Z,121.80
2023-04-09T23:12:25.051Z,122.00
2023-04-09T23:22:30.037Z,117.30
2023-04-09T23:32:33.736Z,118.30
2023-04-09T23:42:38.976Z,118.67
2023-04-09T23:52:48.867Z,115.77
